Aérodrome :
LOGIN :

S'inscrire | Disclaimer

   EN    FR    IT 

 










Légende :    VFR   VFR Marginal   IFR   IFR Intensif   IFR Très Intensif
Visi : 
Plafond : 
>= 8 km
>= 3000ft
5 à 8 km
1000 à 3000 ft
1500m à 5 km
500 à 1000 ft
800 à 1500m
200 à 500 ft
< 800m
< 200 ft
Symboles :   Orages  Brouillard  Fortes neiges  Fortes précipitations  Vent > 20 kt
SIGMETs :   Divers  Orages  Givrage  Turbulence  Onde Orograph.  Cendres Volcan.






- Altitude de l'aérodrome : 479 ft
- Code IATA : DOL


LFRG - Deauville

DERNIER METAR :
  • 011700Z AUTO 36008KT 9999 FEW027 BKN046 07/04 Q1024 TEMPO SHRA BKN020TCU

METARs EXPIRÉS :
  • 011630Z AUTO 36009KT 9999 FEW020 OVC041 08/04 Q1024 TEMPO SHRA BKN020TCU
  • 011600Z AUTO 35009KT 310V020 9999 FEW022 SCT032 BKN039 07/04 Q1024 TEMPO SHRA BKN020TCU
  • 011530Z AUTO 35008KT 300V030 9999 SCT023 BKN030 OVC040 08/04 Q1024 TEMPO SHRA BKN020TCU
  • 011500Z AUTO 36007KT 320V030 9999 BKN033 OVC040 08/04 Q1024 TEMPO SHRA BKN020TCU
  • 011430Z AUTO 35010KT 320V020 9999 FEW021 BKN033 OVC040 08/04 Q1024 TEMPO SHRA BKN020TCU

TAF TAF LFRG
Valide du 01 à 15h jusqu'au 02 à 00h UTC


011400Z 0115/0124 36010KT 9999 SCT020
PROB30
TEMPO 0115/0124 5000 SHRA BKN020TCU
BECMG 0120/0122 36005KT
ATIS : +33 2 31 65 65 36



MET'MAP, la Météo Aéronautique d'un coup d'oeil ! - Copyright ORBIFLY Décembre 2007 - Disclaimer

ORBIFLY MET'MAP TEAM :

Programmation & Développement : Alexandra Zaïnal
Sur une idée originale de : Baudouin d'Aumeries
Assistance à la programmation : Marc-Olivier Méhu
Soutien technique & logistique : Manuel Goepfert

Contact : metmap@orbifly.com




SOURCES & CREDITS :

   NOAA